Temp: 5.3°C   Baro: 1000.3mb
  Wind: 0.0mph   Dir: WSW (242°)
  Rain: 0.0mm (0.0mm/hr)
  Solar: 65W/m2  Hum: 90%
 
Bath Spa Weather Historical Data
Daily Summary for July 13, 2019 Units:  English    Metric   Both
Next Day »
Daily Weekly Monthly Yearly Custom
  High: Low: Average:
Temperature: 71.6 °F 54 °F 62.4 °F
Dew Point: 58.3 °F 50.5 °F 54.1 °F
Humidity: 89% 57% 75%
Wind Speed: 15mph 0mph 2.3mph
Wind Gust: 15mph - -
Wind direction- - SSW
Pressure: 30.2 in 30.1 in -
Precipitation: 0 in    
Historical Graphs
 
 
Tabular Data for July 13, 2019
Time Temperature Dew Point Pressure Wind direction Wind Speed Wind Gust Humidity Rainfall Rate (Hourly) solar
00:04 60.3 °F 53.1 °F 30.2 in Calm     77% 0 in 0.00 W/m2
00:09 59.9 °F 52.7 °F 30.2 in Calm     77% 0 in 0.00 W/m2
00:14 59.5 °F 52.7 °F 30.1 in WNW 2 mph 2 mph 78% 0 in 0.00 W/m2
00:19 59.2 °F 52.3 °F 30.1 in WNW 2 mph 4 mph 78% 0 in 0.00 W/m2
00:24 58.8 °F 52.3 °F 30.1 in WNW 0.9 mph 3 mph 79% 0 in 0.00 W/m2
00:29 58.6 °F 52.2 °F 30.1 in WNW 2 mph 2 mph 79% 0 in 0.00 W/m2
00:34 58.6 °F 52.5 °F 30.1 in WNW 0.9 mph 2 mph 80% 0 in 0.00 W/m2
00:39 58.5 °F 52.3 °F 30.1 in WNW 0.9 mph 3 mph 80% 0 in 0.00 W/m2
00:44 58.1 °F 52 °F 30.1 in WNW 0.9 mph 3 mph 80% 0 in 0.00 W/m2
00:49 58.1 °F 52.3 °F 30.2 in Calm   2 mph 81% 0 in 0.00 W/m2
00:54 58.1 °F 52.3 °F 30.2 in WNW 0.9 mph 2 mph 81% 0 in 0.00 W/m2
00:59 58.1 °F 52.3 °F 30.1 in WNW 0.9 mph 3 mph 81% 0 in 0.00 W/m2
01:04 57.9 °F 52.2 °F 30.2 in WNW 0.9 mph 4 mph 81% 0 in 0.00 W/m2
01:09 57.9 °F 52.5 °F 30.2 in Calm   3 mph 82% 0 in 0.00 W/m2
01:14 57.7 °F 52.3 °F 30.2 in Calm     82% 0 in 0.00 W/m2
01:19 57.7 °F 52.3 °F 30.2 in Calm     82% 0 in 0.00 W/m2
01:24 57.6 °F 52.2 °F 30.2 in WNW 0.9 mph 2 mph 82% 0 in 0.00 W/m2
01:29 57.4 °F 52 °F 30.2 in WNW 0.9 mph 2 mph 82% 0 in 0.00 W/m2
01:34 57.4 °F 52.3 °F 30.2 in WNW 0.9 mph 2 mph 83% 0 in 0.00 W/m2
01:39 57.4 °F 52.3 °F 30.2 in Calm   3 mph 83% 0 in 0.00 W/m2
01:44 57.4 °F 52.3 °F 30.2 in WNW 0.9 mph 3 mph 83% 0 in 0.00 W/m2
01:49 57.4 °F 52.3 °F 30.2 in WNW 0.9 mph 3 mph 83% 0 in 0.00 W/m2
01:54 57.4 °F 52.3 °F 30.2 in WNW 2 mph 2 mph 83% 0 in 0.00 W/m2
01:59 57.2 °F 52.2 °F 30.2 in Calm   3 mph 83% 0 in 0.00 W/m2
02:04 57.2 °F 52.2 °F 30.2 in Calm   1 mph 83% 0 in 0.00 W/m2
02:09 57 °F 52 °F 30.2 in Calm   1 mph 83% 0 in 0.00 W/m2
02:14 57 °F 52 °F 30.2 in WNW 0.9 mph 3 mph 83% 0 in 0.00 W/m2
02:19 56.7 °F 51.6 °F 30.2 in WNW 0.9 mph 2 mph 83% 0 in 0.00 W/m2
02:24 56.7 °F 51.8 °F 30.2 in WNW 3 mph 3 mph 84% 0 in 0.00 W/m2
02:29 56.7 °F 51.8 °F 30.2 in Calm   2 mph 84% 0 in 0.00 W/m2
02:34 56.7 °F 51.8 °F 30.2 in Calm   2 mph 84% 0 in 0.00 W/m2
02:39 56.3 °F 51.4 °F 30.2 in WNW 0.9 mph 3 mph 84% 0 in 0.00 W/m2
02:44 56.3 °F 51.4 °F 30.2 in Calm   2 mph 84% 0 in 0.00 W/m2
02:49 56.3 °F 51.8 °F 30.2 in Calm     85% 0 in 0.00 W/m2
02:54 56.3 °F 51.8 °F 30.2 in Calm     85% 0 in 0.00 W/m2
02:59 56.3 °F 51.8 °F 30.2 in Calm     85% 0 in 0.00 W/m2
03:04 56.1 °F 51.6 °F 30.2 in Calm     85% 0 in 0.00 W/m2
03:09 56.1 °F 51.6 °F 30.2 in Calm     85% 0 in 0.00 W/m2
03:14 56.1 °F 51.6 °F 30.2 in Calm     85% 0 in 0.00 W/m2
03:19 55.8 °F 51.3 °F 30.2 in Calm     85% 0 in 0.00 W/m2
03:24 55.6 °F 51.1 °F 30.2 in Calm   2 mph 85% 0 in 0.00 W/m2
03:29 55.4 °F 50.9 °F 30.2 in Calm   2 mph 85% 0 in 0.00 W/m2
03:34 55.4 °F 51.3 °F 30.2 in WNW 0.9 mph 1 mph 86% 0 in 0.00 W/m2
03:39 55.4 °F 51.3 °F 30.2 in Calm   1 mph 86% 0 in 0.00 W/m2
03:44 55.4 °F 51.3 °F 30.2 in Calm     86% 0 in 0.00 W/m2
03:49 55.4 °F 51.3 °F 30.2 in Calm     86% 0 in 0.00 W/m2
03:54 55.4 °F 51.3 °F 30.2 in Calm     86% 0 in 0.00 W/m2
03:59 55.4 °F 51.3 °F 30.2 in Calm     86% 0 in 0.00 W/m2
04:04 55.2 °F 51.1 °F 30.2 in WNW 1 mph 1 mph 86% 0 in 0.00 W/m2
04:09 55.2 °F 51.1 °F 30.2 in Calm     86% 0 in 0.00 W/m2
04:14 55 °F 51.3 °F 30.2 in Calm     87% 0 in 0.00 W/m2
04:19 55 °F 51.3 °F 30.2 in Calm     87% 0 in 0.00 W/m2
04:24 54.9 °F 51.1 °F 30.2 in Calm     87% 0 in 0.00 W/m2
04:29 54.7 °F 50.9 °F 30.2 in Calm     87% 0 in 0.00 W/m2
04:34 54.9 °F 51.1 °F 30.2 in Calm     87% 0 in 0.00 W/m2
04:39 54.7 °F 50.9 °F 30.2 in Calm     87% 0 in 0.00 W/m2
04:44 54.7 °F 50.9 °F 30.2 in Calm     87% 0 in 0.00 W/m2
04:49 54.7 °F 50.9 °F 30.2 in Calm     87% 0 in 0.00 W/m2
04:54 54.3 °F 50.5 °F 30.2 in WNW 0.9 mph 1 mph 87% 0 in 0.00 W/m2
04:59 54.3 °F 50.5 °F 30.2 in Calm   3 mph 87% 0 in 0.00 W/m2
05:04 54.3 °F 50.9 °F 30.2 in Calm     88% 0 in 0.00 W/m2
05:09 54.1 °F 50.7 °F 30.2 in Calm     88% 0 in 0.00 W/m2
05:14 54.1 °F 50.7 °F 30.2 in Calm     88% 0 in 0.00 W/m2
05:19 54 °F 50.5 °F 30.2 in Calm     88% 0 in 5.00 W/m2
05:24 54 °F 50.5 °F 30.2 in Calm     88% 0 in 7.00 W/m2
05:29 54.1 °F 50.7 °F 30.2 in Calm     88% 0 in 11.00 W/m2
05:34 54.1 °F 50.7 °F 30.2 in Calm     88% 0 in 14.00 W/m2
05:39 54.3 °F 50.9 °F 30.2 in Calm     88% 0 in 19.00 W/m2
05:44 54.1 °F 50.7 °F 30.2 in WNW 1 mph 1 mph 88% 0 in 21.00 W/m2
05:49 54.1 °F 50.7 °F 30.2 in Calm   1 mph 88% 0 in 25.00 W/m2
05:54 54.1 °F 50.9 °F 30.2 in Calm     89% 0 in 28.00 W/m2
05:59 54.3 °F 51.1 °F 30.2 in Calm     89% 0 in 30.00 W/m2
06:04 54.3 °F 51.1 °F 30.2 in Calm     89% 0 in 33.00 W/m2
06:09 54.5 °F 51.3 °F 30.2 in Calm     89% 0 in 32.00 W/m2
06:14 54.9 °F 51.6 °F 30.2 in Calm     89% 0 in 35.00 W/m2
06:19 55 °F 51.8 °F 30.2 in Calm   1 mph 89% 0 in 37.00 W/m2
06:24 55.4 °F 52.2 °F 30.2 in Calm     89% 0 in 42.00 W/m2
06:29 55.8 °F 52.5 °F 30.2 in Calm     89% 0 in 53.00 W/m2
06:34 55.9 °F 52.7 °F 30.2 in Calm     89% 0 in 58.00 W/m2
06:39 56.1 °F 52.7 °F 30.2 in Calm     88% 0 in 65.00 W/m2
06:44 56.3 °F 53.1 °F 30.2 in Calm     89% 0 in 77.00 W/m2
06:49 56.3 °F 52.9 °F 30.2 in Calm   2 mph 88% 0 in 84.00 W/m2
06:54 56.7 °F 53.1 °F 30.2 in Calm   2 mph 88% 0 in 72.00 W/m2
06:59 56.7 °F 53.1 °F 30.2 in WNW 0.9 mph 2 mph 88% 0 in 60.00 W/m2
07:04 56.8 °F 53.2 °F 30.2 in Calm   1 mph 88% 0 in 63.00 W/m2
07:09 56.8 °F 53.2 °F 30.2 in Calm   1 mph 88% 0 in 54.00 W/m2
07:14 57 °F 53.2 °F 30.2 in Calm   1 mph 87% 0 in 63.00 W/m2
07:19 57 °F 53.2 °F 30.2 in Calm     87% 0 in 69.00 W/m2
07:24 57.4 °F 53.6 °F 30.2 in Calm     87% 0 in 83.00 W/m2
07:29 57.6 °F 53.8 °F 30.2 in Calm   1 mph 87% 0 in 67.00 W/m2
07:34 57.7 °F 54 °F 30.2 in Calm     87% 0 in 83.00 W/m2
07:39 57.9 °F 54.1 °F 30.2 in Calm   1 mph 87% 0 in 118.00 W/m2
07:44 58.3 °F 54.5 °F 30.2 in WNW 0.9 mph 1 mph 87% 0 in 144.00 W/m2
07:49 58.5 °F 54.3 °F 30.2 in WNW 0.9 mph 2 mph 86% 0 in 174.00 W/m2
07:54 58.8 °F 54.7 °F 30.2 in Calm   3 mph 86% 0 in 178.00 W/m2
07:59 59.2 °F 54.7 °F 30.2 in West 2 mph 3 mph 85% 0 in 146.00 W/m2
08:04 59.5 °F 55 °F 30.2 in West 0.9 mph 1 mph 85% 0 in 156.00 W/m2
08:09 59.9 °F 55 °F 30.2 in Calm   3 mph 84% 0 in 223.00 W/m2
08:14 60.3 °F 55 °F 30.2 in NW 4 mph 5 mph 83% 0 in 216.00 W/m2
08:19 60.4 °F 54.9 °F 30.2 in North 2 mph 8 mph 82% 0 in 178.00 W/m2
08:24 60.4 °F 54.5 °F 30.2 in NW 2 mph 7 mph 81% 0 in 153.00 W/m2
08:29 60.4 °F 54.5 °F 30.2 in NW 0.9 mph 6 mph 81% 0 in 148.00 W/m2
08:34 60.6 °F 54.5 °F 30.2 in NNW 4.9 mph 5 mph 80% 0 in 165.00 W/m2
08:39 60.8 °F 54.7 °F 30.2 in North 4.9 mph 7 mph 80% 0 in 165.00 W/m2
08:44 60.8 °F 54.7 °F 30.2 in North 2 mph 6 mph 80% 0 in 160.00 W/m2
08:49 60.8 °F 54.7 °F 30.2 in NNW 4.9 mph 6 mph 80% 0 in 188.00 W/m2
08:54 60.8 °F 54.7 °F 30.2 in North 8.1 mph 9 mph 80% 0 in 193.00 W/m2
08:59 60.8 °F 54.3 °F 30.2 in North 2 mph 4 mph 79% 0 in 153.00 W/m2
09:04 60.8 °F 54.3 °F 30.2 in NNE 8.1 mph 10 mph 79% 0 in 148.00 W/m2
09:09 60.4 °F 54 °F 30.2 in North 4 mph 11 mph 79% 0 in 153.00 W/m2
09:14 60.4 °F 54 °F 30.2 in NNE 4.9 mph 9 mph 79% 0 in 151.00 W/m2
09:19 60.4 °F 54.3 °F 30.2 in North 2.9 mph 6 mph 80% 0 in 139.00 W/m2
09:24 60.4 °F 54.3 °F 30.2 in Calm   9 mph 80% 0 in 104.00 W/m2
09:29 59.7 °F 53.6 °F 30.2 in NNE 4.9 mph 8 mph 80% 0 in 116.00 W/m2
09:34 59.7 °F 54 °F 30.2 in NNW 4 mph 7 mph 81% 0 in 135.00 W/m2
09:39 59.5 °F 54 °F 30.2 in NNW 2.9 mph 9 mph 82% 0 in 165.00 W/m2
09:44 59.5 °F 54 °F 30.2 in Calm   5 mph 82% 0 in 192.00 W/m2
09:49 59.7 °F 54.1 °F 30.2 in Calm   5 mph 82% 0 in 156.00 W/m2
09:54 60.1 °F 54.5 °F 30.2 in North 4 mph 7 mph 82% 0 in 190.00 W/m2
09:59 59.9 °F 54.1 °F 30.2 in NNE 6.9 mph 7 mph 81% 0 in 188.00 W/m2
10:04 59.9 °F 54.1 °F 30.2 in North 6 mph 8 mph 81% 0 in 209.00 W/m2
10:09 60.1 °F 54.3 °F 30.2 in NNE 6 mph 10 mph 81% 0 in 301.00 W/m2
10:14 60.3 °F 54.7 °F 30.2 in NNW 4.9 mph 5 mph 82% 0 in 334.00 W/m2
10:19 60.4 °F 54.5 °F 30.2 in NNW 2 mph 5 mph 81% 0 in 343.00 W/m2
10:24 60.8 °F 54.9 °F 30.2 in NW 4.9 mph 8 mph 81% 0 in 408.00 W/m2
10:29 60.8 °F 54.9 °F 30.2 in NNE 8.1 mph 9 mph 81% 0 in 318.00 W/m2
10:34 60.8 °F 54.7 °F 30.2 in NNW 4.9 mph 10 mph 80% 0 in 403.00 W/m2
10:39 61.3 °F 54.5 °F 30.2 in Calm   7 mph 78% 0 in 408.00 W/m2
10:44 61.5 °F 54 °F 30.2 in NW 2 mph 5 mph 76% 0 in 392.00 W/m2
10:49 62.1 °F 54.3 °F 30.2 in NNW 6 mph 8 mph 76% 0 in 378.00 W/m2
10:54 62.2 °F 54.1 °F 30.2 in NNW 2.9 mph 9 mph 75% 0 in 271.00 W/m2
10:59 62.1 °F 54 °F 30.2 in North 2 mph 7 mph 75% 0 in 248.00 W/m2
11:04 61.7 °F 53.2 °F 30.2 in NNE 4.9 mph 12 mph 74% 0 in 360.00 W/m2
11:09 62.4 °F 53.6 °F 30.2 in North 4.9 mph 5 mph 73% 0 in 397.00 W/m2
11:14 63 °F 53.4 °F 30.2 in NW 4.9 mph 9 mph 71% 0 in 392.00 W/m2
11:19 63 °F 53.4 °F 30.2 in WNW 4.9 mph 12 mph 71% 0 in 431.00 W/m2
11:24 63.5 °F 54 °F 30.2 in NNE 2.9 mph 6 mph 71% 0 in 420.00 W/m2
11:29 63.9 °F 54 °F 30.2 in North 6 mph 7 mph 70% 0 in 431.00 W/m2
11:34 63.5 °F 53.6 °F 30.2 in WNW 6.9 mph 8 mph 70% 0 in 211.00 W/m2
11:39 63.1 °F 53.6 °F 30.2 in NW 6 mph 9 mph 71% 0 in 171.00 W/m2
11:44 62.6 °F 53.1 °F 30.2 in NW 4 mph 8 mph 71% 0 in 155.00 W/m2
11:49 62.4 °F 53.2 °F 30.2 in WNW 4 mph 8 mph 72% 0 in 163.00 W/m2
11:54 62.4 °F 53.2 °F 30.2 in NW 4.9 mph 6 mph 72% 0 in 204.00 W/m2
11:59 62.4 °F 53.2 °F 30.2 in WNW 4.9 mph 7 mph 72% 0 in 216.00 W/m2
12:04 62.4 °F 53.2 °F 30.2 in NW 0.9 mph 7 mph 72% 0 in 178.00 W/m2
12:09 62.6 °F 53.4 °F 30.2 in WNW 4 mph 5 mph 72% 0 in 167.00 W/m2
12:14 62.2 °F 53.1 °F 30.2 in NW 2.9 mph 9 mph 72% 0 in 178.00 W/m2
12:19 62.2 °F 53.4 °F 30.2 in NW 4.9 mph 6 mph 73% 0 in 209.00 W/m2
12:24 62.4 °F 53.6 °F 30.2 in WNW 2.9 mph 7 mph 73% 0 in 246.00 W/m2
12:29 62.6 °F 53.1 °F 30.2 in NW 8.1 mph 9 mph 71% 0 in 290.00 W/m2
12:34 62.8 °F 52.9 °F 30.2 in WNW 2.9 mph 5 mph 70% 0 in 318.00 W/m2
12:39 63.1 °F 53.2 °F 30.2 in West 2.9 mph 7 mph 70% 0 in 348.00 W/m2
12:44 63.5 °F 53.1 °F 30.2 in Calm   6 mph 69% 0 in 388.00 W/m2
12:49 64 °F 53.6 °F 30.2 in NNW 4 mph 5 mph 69% 0 in 394.00 W/m2
12:54 64.4 °F 53.2 °F 30.2 in WNW 2 mph 4 mph 67% 0 in 246.00 W/m2
12:59 64 °F 52.9 °F 30.2 in North 2.9 mph 10 mph 67% 0 in 176.00 W/m2
13:04 63.9 °F 53.1 °F 30.2 in NNE 2 mph 6 mph 68% 0 in 155.00 W/m2
13:09 63.9 °F 52.7 °F 30.2 in NNW 4.9 mph 6 mph 67% 0 in 171.00 W/m2
13:14 63.5 °F 52.3 °F 30.2 in NE 0.9 mph 10 mph 67% 0 in 221.00 W/m2
13:19 63.9 °F 52.7 °F 30.2 in North 4.9 mph 6 mph 67% 0 in 329.00 W/m2
13:24 64.2 °F 52.7 °F 30.2 in North 9 mph 9 mph 66% 0 in 364.00 W/m2
13:29 64.4 °F 52.9 °F 30.2 in Calm   4 mph 66% 0 in 404.00 W/m2
13:34 65.3 °F 52.9 °F 30.2 in North 2 mph 8 mph 64% 0 in 404.00 W/m2
13:39 65.8 °F 52.5 °F 30.2 in NW 2.9 mph 7 mph 62% 0 in 443.00 W/m2
13:44 65.7 °F 54.3 °F 30.2 in Calm   6 mph 67% 0 in 454.00 W/m2
13:49 66.7 °F 55 °F 30.2 in ENE 4.9 mph 5 mph 66% 0 in 399.00 W/m2
13:54 66.4 °F 54.3 °F 30.2 in Calm   6 mph 65% 0 in 371.00 W/m2
13:59 65.7 °F 54 °F 30.2 in NW 4 mph 7 mph 66% 0 in 348.00 W/m2
14:04 65.5 °F 53.8 °F 30.2 in NNE 6 mph 12 mph 66% 0 in 380.00 W/m2
14:09 65.7 °F 54 °F 30.2 in NNW 2.9 mph 7 mph 66% 0 in 487.00 W/m2
14:14 66.2 °F 54.1 °F 30.2 in NW 2.9 mph 4 mph 65% 0 in 468.00 W/m2
14:19 66.4 °F 54.3 °F 30.2 in NNE 2.9 mph 9 mph 65% 0 in 645.00 W/m2
14:24 66.7 °F 54.7 °F 30.2 in NE 4.9 mph 8 mph 65% 0 in 411.00 W/m2
14:29 67.5 °F 54.9 °F 30.2 in WNW 2 mph 8 mph 64% 0 in 496.00 W/m2
14:34 66.6 °F 54 °F 30.2 in NW 4.9 mph 8 mph 64% 0 in 355.00 W/m2
14:39 66.7 °F 54.1 °F 30.2 in NNW 4.9 mph 6 mph 64% 0 in 788.00 W/m2
14:44 67.1 °F 54.1 °F 30.2 in Calm   7 mph 63% 0 in 388.00 W/m2
14:49 68.2 °F 54.1 °F 30.2 in NW 6 mph 6 mph 61% 0 in 643.00 W/m2
14:54 68.2 °F 54.7 °F 30.2 in WNW 2 mph 6 mph 62% 0 in 519.00 W/m2
14:59 67.6 °F 54.1 °F 30.2 in NW 0.9 mph 6 mph 62% 0 in 339.00 W/m2
15:04 67.1 °F 53.6 °F 30.2 in NW 4 mph 5 mph 62% 0 in 334.00 W/m2
15:09 67.8 °F 54.3 °F 30.2 in NE 0.9 mph 7 mph 62% 0 in 359.00 W/m2
15:14 69.3 °F 54.9 °F 30.2 in ENE 0.9 mph 6 mph 60% 0 in 352.00 W/m2
15:19 68.9 °F 54.9 °F 30.2 in NE 2.9 mph 4 mph 61% 0 in 302.00 W/m2
15:24 68.4 °F 54.3 °F 30.2 in Calm   4 mph 61% 0 in 265.00 W/m2
15:29 68.4 °F 54.3 °F 30.2 in Calm   3 mph 61% 0 in 255.00 W/m2
15:34 68.5 °F 55 °F 30.2 in Calm   4 mph 62% 0 in 265.00 W/m2
15:39 68.4 °F 54.3 °F 30.2 in Calm   2 mph 61% 0 in 306.00 W/m2
15:44 69.1 °F 55 °F 30.2 in WNW 6 mph 6 mph 61% 0 in 970.00 W/m2
15:49 69.1 °F 54.7 °F 30.2 in WNW 0.9 mph 4 mph 60% 0 in 425.00 W/m2
15:54 69.3 °F 54.9 °F 30.2 in WNW 2.9 mph 4 mph 60% 0 in 399.00 W/m2
15:59 69.3 °F 54.9 °F 30.2 in Calm   2 mph 60% 0 in 387.00 W/m2
16:04 69.8 °F 54.3 °F 30.2 in WNW 2 mph 3 mph 58% 0 in 276.00 W/m2
16:09 69.8 °F 55.2 °F 30.2 in WNW 0.9 mph 4 mph 60% 0 in 868.00 W/m2
16:14 70.3 °F 55.8 °F 30.2 in NW 8 mph 8 mph 60% 0 in 884.00 W/m2
16:19 70.5 °F 55 °F 30.2 in North 0.9 mph 8 mph 58% 0 in 823.00 W/m2
16:24 71.6 °F 55.6 °F 30.2 in Calm   5 mph 57% 0 in 339.00 W/m2
16:29 70.9 °F 54.9 °F 30.2 in NNW 2.9 mph 6 mph 57% 0 in 255.00 W/m2
16:34 70.2 °F 55.2 °F 30.2 in NW 4.9 mph 6 mph 59% 0 in 207.00 W/m2
16:39 69.3 °F 55.2 °F 30.2 in NW 4 mph 6 mph 61% 0 in 214.00 W/m2
16:44 68.7 °F 54.7 °F 30.2 in Calm   5 mph 61% 0 in 234.00 W/m2
16:49 68.7 °F 55.2 °F 30.2 in NW 2.9 mph 6 mph 62% 0 in 234.00 W/m2
16:54 68.7 °F 54.7 °F 30.2 in Calm   3 mph 61% 0 in 239.00 W/m2
16:59 69.3 °F 55.2 °F 30.2 in Calm   2 mph 61% 0 in 236.00 W/m2
17:04 70 °F 55.4 °F 30.2 in WNW 0.9 mph 6 mph 60% 0 in 705.00 W/m2
17:09 70.3 °F 55.8 °F 30.2 in NW 2 mph 5 mph 60% 0 in 341.00 W/m2
17:14 70.2 °F 55.6 °F 30.2 in NNW 2.9 mph 4 mph 60% 0 in 251.00 W/m2
17:19 69.8 °F 55.2 °F 30.2 in NNW 7 mph 7 mph 60% 0 in 186.00 W/m2
17:24 69.6 °F 55.6 °F 30.2 in Calm   3 mph 61% 0 in 179.00 W/m2
17:29 70.2 °F 56.1 °F 30.2 in NNW 2.9 mph 7 mph 61% 0 in 200.00 W/m2
17:34 69.6 °F 55.6 °F 30.2 in NW 2.9 mph 5 mph 61% 0 in 276.00 W/m2
17:39 70 °F 55.9 °F 30.2 in NW 2 mph 6 mph 61% 0 in 557.00 W/m2
17:44 71.1 °F 56.5 °F 30.2 in NW 2.9 mph 3 mph 60% 0 in 577.00 W/m2
17:49 71.1 °F 55.9 °F 30.2 in Calm   3 mph 59% 0 in 183.00 W/m2
17:54 70.9 °F 56.8 °F 30.2 in NW 2 mph 5 mph 61% 0 in 227.00 W/m2
17:59 70.2 °F 56.1 °F 30.2 in NW 4.9 mph 8 mph 61% 0 in 167.00 W/m2
18:04 70.2 °F 56.5 °F 30.2 in North 6.9 mph 7 mph 62% 0 in 364.00 W/m2
18:09 69.8 °F 56.1 °F 30.2 in NNE 9 mph 9 mph 62% 0 in 148.00 W/m2
18:14 69.6 °F 55.9 °F 30.2 in North 6 mph 6 mph 62% 0 in 121.00 W/m2
18:19 69.4 °F 56.3 °F 30.2 in NNE 6 mph 7 mph 63% 0 in 118.00 W/m2
18:24 69.4 °F 56.3 °F 30.2 in NNW 2 mph 6 mph 63% 0 in 364.00 W/m2
18:29 69.6 °F 56.5 °F 30.2 in NNW 2.9 mph 5 mph 63% 0 in 357.00 W/m2
18:34 69.8 °F 56.7 °F 30.2 in NNE 6 mph 6 mph 63% 0 in 334.00 W/m2
18:39 69.8 °F 56.7 °F 30.2 in North 4 mph 8 mph 63% 0 in 350.00 W/m2
18:44 70.2 °F 57 °F 30.2 in Calm   5 mph 63% 0 in 374.00 W/m2
18:49 70.5 °F 56.8 °F 30.2 in North 2 mph 6 mph 62% 0 in 353.00 W/m2
18:54 70.9 °F 57.2 °F 30.2 in North 0.9 mph 6 mph 62% 0 in 232.00 W/m2
18:59 70.7 °F 57 °F 30.2 in NNW 0.9 mph 4 mph 62% 0 in 329.00 W/m2
19:04 71.1 °F 57.4 °F 30.2 in NNW 0.9 mph 5 mph 62% 0 in 271.00 W/m2
19:09 70.3 °F 56.7 °F 30.2 in NW 4.9 mph 7 mph 62% 0 in 77.00 W/m2
19:14 69.6 °F 56.8 °F 30.2 in NW 4.9 mph 5 mph 64% 0 in 65.00 W/m2
19:19 69.4 °F 57.2 °F 30.2 in NNE 0.9 mph 8 mph 65% 0 in 53.00 W/m2
19:24 69.3 °F 57.4 °F 30.2 in NNE 0.9 mph 2 mph 66% 0 in 53.00 W/m2
19:29 69.1 °F 57.2 °F 30.2 in NNE 4 mph 6 mph 66% 0 in 54.00 W/m2
19:34 68.7 °F 57.4 °F 30.2 in NNE 2.9 mph 5 mph 67% 0 in 47.00 W/m2
19:39 68.5 °F 57.2 °F 30.2 in NNE 2 mph 7 mph 67% 0 in 46.00 W/m2
19:44 68 °F 57 °F 30.2 in North 2.9 mph 8 mph 68% 0 in 54.00 W/m2
19:49 67.6 °F 57 °F 30.2 in North 6 mph 7 mph 69% 0 in 74.00 W/m2
19:54 67.6 °F 57 °F 30.2 in North 6 mph 7 mph 69% 0 in 79.00 W/m2
19:59 67.5 °F 57 °F 30.2 in North 2.9 mph 7 mph 69% 0 in 70.00 W/m2
20:04 67.5 °F 57.4 °F 30.2 in NNE 4 mph 6 mph 70% 0 in 63.00 W/m2
20:09 67.5 °F 57.4 °F 30.2 in North 2.9 mph 7 mph 70% 0 in 76.00 W/m2
20:14 67.6 °F 57 °F 30.2 in North 0.9 mph 4 mph 69% 0 in 60.00 W/m2
20:19 67.8 °F 57.7 °F 30.2 in North 2 mph 4 mph 70% 0 in 44.00 W/m2
20:24 68.2 °F 58.1 °F 30.2 in North 0.9 mph 4 mph 70% 0 in 37.00 W/m2
20:29 68.2 °F 58.1 °F 30.2 in North 2.9 mph 4 mph 70% 0 in 35.00 W/m2
20:34 68 °F 57.9 °F 30.2 in NNE 7 mph 7 mph 70% 0 in 30.00 W/m2
20:39 68 °F 58.3 °F 30.2 in Calm   4 mph 71% 0 in 26.00 W/m2
20:44 68 °F 58.3 °F 30.2 in NNE 0.9 mph 4 mph 71% 0 in 23.00 W/m2
20:49 68 °F 58.3 °F 30.2 in NNE 4 mph 6 mph 71% 0 in 19.00 W/m2
20:54 67.8 °F 58.1 °F 30.2 in North 2.9 mph 5 mph 71% 0 in 16.00 W/m2
20:59 67.6 °F 57.9 °F 30.2 in Calm   3 mph 71% 0 in 14.00 W/m2
21:04 67.3 °F 57.6 °F 30.2 in NNE 2.9 mph 5 mph 71% 0 in 12.00 W/m2
21:09 67.1 °F 57.4 °F 30.2 in NNE 4.9 mph 6 mph 71% 0 in 9.00 W/m2
21:14 66.7 °F 57.4 °F 30.2 in NNE 2.9 mph 6 mph 72% 0 in 5.00 W/m2
21:19 66.6 °F 57.2 °F 30.2 in NNE 8.1 mph 8 mph 72% 0 in 0.00 W/m2
21:24 66.2 °F 56.8 °F 30.2 in NNE 2.9 mph 6 mph 72% 0 in 0.00 W/m2
21:29 66 °F 57.2 °F 30.2 in NNE 2 mph 8 mph 73% 0 in 0.00 W/m2
21:34 66 °F 57.2 °F 30.2 in NNE 0.9 mph 3 mph 73% 0 in 0.00 W/m2
21:39 65.7 °F 56.8 °F 30.2 in Calm   3 mph 73% 0 in 0.00 W/m2
21:44 65.7 °F 56.8 °F 30.2 in NNE 0.9 mph 2 mph 73% 0 in 0.00 W/m2
21:49 65.3 °F 56.5 °F 30.2 in Calm   3 mph 73% 0 in 0.00 W/m2
21:54 65.1 °F 56.7 °F 30.2 in NNE 2.9 mph 6 mph 74% 0 in 0.00 W/m2
21:59 64.8 °F 56.3 °F 30.2 in NNE 2.9 mph 6 mph 74% 0 in 0.00 W/m2
22:04 64.4 °F 55.9 °F 30.2 in NNE 7 mph 7 mph 74% 0 in 0.00 W/m2
22:09 64.4 °F 55.9 °F 30.2 in NNE 0.9 mph 8 mph 74% 0 in 0.00 W/m2
22:14 64.2 °F 56.1 °F 30.2 in NNE 0.9 mph 3 mph 75% 0 in 0.00 W/m2
22:19 64.2 °F 56.1 °F 30.2 in NNE 4 mph 6 mph 75% 0 in 0.00 W/m2
22:24 64.2 °F 56.1 °F 30.2 in NNE 2.9 mph 4 mph 75% 0 in 0.00 W/m2
22:29 64 °F 55.9 °F 30.2 in NNE 4 mph 8 mph 75% 0 in 0.00 W/m2
22:34 64 °F 55.9 °F 30.2 in Calm   6 mph 75% 0 in 0.00 W/m2
22:39 64 °F 55.9 °F 30.2 in NE 2.9 mph 3 mph 75% 0 in 0.00 W/m2
22:44 64 °F 55.9 °F 30.2 in NE 5 mph 5 mph 75% 0 in 0.00 W/m2
22:49 64 °F 55.9 °F 30.2 in NE 2.9 mph 4 mph 75% 0 in 0.00 W/m2
22:54 63.9 °F 55.8 °F 30.2 in North 2.9 mph 7 mph 75% 0 in 0.00 W/m2
22:59 63.9 °F 55.8 °F 30.2 in NE 4 mph 7 mph 75% 0 in 0.00 W/m2
23:04 63.7 °F 55.9 °F 30.2 in NW 4 mph 10 mph 76% 0 in 0.00 W/m2
23:09 63.5 °F 55.8 °F 30.2 in NNE 4 mph 9 mph 76% 0 in 0.00 W/m2
23:14 63.5 °F 55.8 °F 30.2 in NNE 2 mph 11 mph 76% 0 in 0.00 W/m2
23:19 63.3 °F 55.6 °F 30.2 in NE 6 mph 7 mph 76% 0 in 0.00 W/m2
23:24 63.1 °F 55.4 °F 30.2 in NNE 2.9 mph 7 mph 76% 0 in 0.00 W/m2
23:29 63.1 °F 55.8 °F 30.2 in ENE 6.9 mph 8 mph 77% 0 in 0.00 W/m2
23:34 63 °F 55.6 °F 30.2 in NE 6 mph 9 mph 77% 0 in 0.00 W/m2
23:39 62.6 °F 55.2 °F 30.2 in NNE 2.9 mph 6 mph 77% 0 in 0.00 W/m2
23:44 62.4 °F 55 °F 30.2 in NNW 4.9 mph 7 mph 77% 0 in 0.00 W/m2
23:49 62.2 °F 55.2 °F 30.2 in North 15 mph 15 mph 78% 0 in 0.00 W/m2
23:54 61.9 °F 54.9 °F 30.2 in NNE 4.9 mph 10 mph 78% 0 in 0.00 W/m2
23:59 61.7 °F 55 °F 30.2 in NE 6.9 mph 12 mph 79% 0 in 0.00 W/m2